Time;durP1;ratioP1;P1;durP2;ratioP2;P2;SDS_P1;SDS_P2;PMS_P1;PMS_P2;Temp;Humidity;BMP_temperature;BMP_pressure;BME280_temperature;BME280_humidity;BME280_pressure;Samples;Min_cycle;Max_cycle;Signal;HPM_P1;HPM_P2
2022/01/15 00:01:36;;;;;;;23.77;14.20;;;;;;;1.81;87.52;97434.84;1683130;84;20960;-81
2022/01/15 00:04:03;;;;;;;29.05;15.68;;;;;;;1.86;87.43;97429.39;1696875;84;20988;-80
2022/01/15 00:06:28;;;;;;;22.37;13.50;;;;;;;1.86;87.33;97439.65;1696827;83;20952;-80
2022/01/15 00:08:54;;;;;;;27.67;14.68;;;;;;;1.81;87.23;97437.40;1696622;84;21012;-80
2022/01/15 00:11:20;;;;;;;21.80;14.38;;;;;;;1.77;87.25;97438.50;1696710;84;21428;-80
2022/01/15 00:13:53;;;;;;;18.60;11.63;;;;;;;1.77;87.35;97438.50;1696868;84;20976;-80
2022/01/15 00:16:27;;;;;;;22.80;12.47;;;;;;;1.73;87.19;97431.94;1695608;84;21418;-80
2022/01/15 00:18:47;;;;;;;18.62;11.00;;;;;;;1.73;87.27;97422.52;1692650;84;21008;-81
2022/01/15 00:21:11;;;;;;;15.50;9.70;;;;;;;1.70;87.04;97427.03;1696557;84;21063;-80
2022/01/15 00:23:37;;;;;;;21.05;14.50;;;;;;;1.73;87.21;97435.33;1696793;85;20983;-80
2022/01/15 00:26:03;;;;;;;20.50;12.30;;;;;;;1.71;87.16;97435.07;1696674;85;21019;-80
2022/01/15 00:28:29;;;;;;;24.90;12.60;;;;;;;1.73;87.44;97437.06;1696743;85;21411;-80
2022/01/15 00:30:54;;;;;;;22.62;12.18;;;;;;;1.71;87.30;97430.77;1696724;84;20983;-80
2022/01/15 00:33:20;;;;;;;18.52;11.63;;;;;;;1.68;87.28;97439.94;1696685;85;21010;-81
2022/01/15 00:35:46;;;;;;;23.38;11.28;;;;;;;1.66;87.31;97434.56;1696672;83;21067;-80
2022/01/15 00:38:11;;;;;;;19.45;10.23;;;;;;;1.63;87.12;97429.19;1696461;84;21078;-80
2022/01/15 00:40:37;;;;;;;20.02;10.38;;;;;;;1.63;87.06;97435.59;1696682;83;21087;-80
2022/01/15 00:43:03;;;;;;;22.95;10.40;;;;;;;1.62;87.27;97438.22;1696817;83;21376;-80
2022/01/15 00:45:32;;;;;;;20.15;14.25;;;;;;;1.58;87.21;97428.64;1696729;85;20976;-81
2022/01/15 00:47:56;;;;;;;17.90;11.22;;;;;;;1.58;87.39;97429.92;1696477;84;21015;-81
2022/01/15 00:50:22;;;;;;;22.30;11.88;;;;;;;1.58;87.71;97423.98;1689383;83;21046;-80
2022/01/15 00:52:48;;;;;;;18.15;10.53;;;;;;;1.57;87.68;97425.73;1688084;85;21052;-80
2022/01/15 00:55:16;;;;;;;18.77;10.35;;;;;;;1.58;87.79;97430.39;1688902;85;21061;-80
2022/01/15 00:57:42;;;;;;;19.23;10.45;;;;;;;1.56;87.65;97427.11;1688763;83;20980;-80
2022/01/15 01:00:10;;;;;;;18.25;10.72;;;;;;;1.59;87.77;97432.03;1675208;83;21525;-80
2022/01/15 01:02:37;;;;;;;22.10;11.78;;;;;;;1.64;87.84;97440.25;1686535;85;21426;-80
2022/01/15 01:05:04;;;;;;;21.87;12.15;;;;;;;1.66;87.78;97434.10;1688936;85;20972;-80
2022/01/15 01:07:29;;;;;;;22.65;11.25;;;;;;;1.67;87.87;97441.33;1688729;85;21439;-80
2022/01/15 01:23:17;;;;;;;23.90;12.80;;;;;;;1.73;87.86;97440.45;1688906;85;21053;-81
2022/01/15 01:25:48;;;;;;;26.17;14.30;;;;;;;1.71;87.88;97450.45;1688630;85;21470;-81
2022/01/15 01:28:23;;;;;;;21.68;13.03;;;;;;;1.68;88.00;97441.69;1688697;85;21024;-80
2022/01/15 01:30:52;;;;;;;24.43;13.18;;;;;;;1.59;88.00;97449.95;1667414;85;21055;-80
2022/01/15 01:36:01;;;;;;;29.05;13.35;;;;;;;1.45;88.14;97450.39;1688957;85;21024;-80
2022/01/15 01:38:27;;;;;;;22.37;14.68;;;;;;;1.43;88.33;97447.11;1685553;85;21475;-80
2022/01/15 01:40:46;;;;;;;26.82;13.88;;;;;;;1.40;88.33;97424.72;1686765;85;21028;-80
2022/01/15 01:45:49;;;;;;;23.20;13.62;;;;;;;1.44;88.46;97440.24;1688953;85;21370;-81
2022/01/15 01:48:13;;;;;;;24.23;14.65;;;;;;;1.42;88.50;97436.97;1688508;85;21104;-80
2022/01/15 01:50:38;;;;;;;24.52;14.70;;;;;;;1.42;88.60;97440.81;1694305;85;21462;-81
2022/01/15 01:53:04;;;;;;;23.75;13.93;;;;;;;1.45;88.60;97439.32;1696879;84;20960;-81
2022/01/15 01:55:30;;;;;;;26.37;13.40;;;;;;;1.45;88.59;97445.27;1696758;84;21058;-80
2022/01/15 01:57:57;;;;;;;25.75;14.65;;;;;;;1.47;88.56;97437.52;1696222;83;21082;-80
2022/01/15 02:00:25;;;;;;;21.42;13.85;;;;;;;1.49;88.53;97440.79;1675054;84;20984;-80
2022/01/15 02:02:51;;;;;;;22.95;13.32;;;;;;;1.50;88.79;97432.18;1668714;86;21544;-80
2022/01/15 02:05:16;;;;;;;28.60;15.85;;;;;;;1.48;88.57;97438.69;1647812;86;21000;-80
2022/01/15 02:07:44;;;;;;;24.90;14.23;;;;;;;1.49;88.68;97437.77;1668783;86;21060;-80
2022/01/15 02:10:16;;;;;;;22.40;12.53;;;;;;;1.52;88.70;97444.89;1668965;86;21163;-80
2022/01/15 02:12:43;;;;;;;27.25;11.95;;;;;;;1.52;88.61;97449.55;1668902;86;20961;-80
2022/01/15 02:15:12;;;;;;;26.65;12.78;;;;;;;1.52;88.46;97442.33;1668727;86;21079;-81
2022/01/15 02:17:39;;;;;;;22.35;12.53;;;;;;;1.53;88.47;97447.34;1668857;85;21115;-81
2022/01/15 02:25:51;;;;;;;23.55;12.15;;;;;;;1.47;88.47;97433.67;1668924;86;21440;-80
2022/01/15 02:28:20;;;;;;;27.20;13.45;;;;;;;1.41;88.32;97431.48;1668873;85;21499;-80
2022/01/15 02:30:55;;;;;;;25.55;11.88;;;;;;;1.38;88.38;97427.39;1668193;86;21039;-80
2022/01/15 02:33:21;;;;;;;19.80;11.15;;;;;;;1.36;88.33;97427.13;1668826;86;21027;-80
2022/01/15 02:35:47;;;;;;;24.52;12.00;;;;;;;1.37;88.43;97438.55;1668661;86;21462;-80
2022/01/15 02:38:12;;;;;;;19.15;11.08;;;;;;;1.38;88.45;97436.34;1668704;86;21091;-80
2022/01/15 02:40:38;;;;;;;26.52;12.20;;;;;;;1.39;88.62;97435.42;1668790;86;21057;-81
2022/01/15 02:43:07;;;;;;;24.92;13.38;;;;;;;1.36;88.56;97437.38;1668806;86;21462;-81
2022/01/15 02:45:34;;;;;;;21.48;12.50;;;;;;;1.33;88.51;97435.02;1668720;86;21010;-81
2022/01/15 02:48:16;;;;;;;24.05;10.78;;;;;;;1.32;88.57;97438.03;1668645;86;21146;-80
2022/01/15 02:50:43;;;;;;;17.67;9.25;;;;;;;1.30;88.65;97442.44;1680508;85;21010;-81
2022/01/15 02:53:10;;;;;;;21.27;9.60;;;;;;;1.25;88.67;97433.39;1688387;85;21004;-80
2022/01/15 02:55:42;;;;;;;25.60;10.93;;;;;;;1.20;88.61;97438.35;1688530;85;21063;-80
2022/01/15 02:58:07;;;;;;;18.07;8.08;;;;;;;1.17;88.64;97447.52;1690352;82;20998;-80
2022/01/15 03:00:33;;;;;;;22.65;9.85;;;;;;;1.15;88.83;97455.75;1712944;83;21022;-80
2022/01/15 03:02:59;;;;;;;20.12;9.70;;;;;;;1.13;88.82;97465.24;1690340;83;21000;-81
2022/01/15 03:05:25;;;;;;;25.57;9.83;;;;;;;1.10;88.79;97460.32;1688403;85;20985;-80
2022/01/15 03:07:50;;;;;;;20.35;9.30;;;;;;;1.09;88.66;97459.96;1688381;85;21028;-80
2022/01/15 03:10:17;;;;;;;21.23;10.32;;;;;;;1.09;88.50;97456.58;1688361;85;21009;-80
2022/01/15 03:12:43;;;;;;;31.37;17.02;;;;;;;1.11;88.60;97455.56;1688409;85;21034;-80
2022/01/15 03:15:13;;;;;;;23.50;12.65;;;;;;;1.16;88.68;97457.86;1688542;85;20988;-80
2022/01/15 03:17:38;;;;;;;17.48;10.00;;;;;;;1.16;88.77;97458.67;1688277;85;21010;-80
2022/01/15 03:20:05;;;;;;;20.75;11.33;;;;;;;1.15;88.62;97460.88;1688353;85;20965;-80
2022/01/15 03:22:31;;;;;;;17.37;9.33;;;;;;;1.14;88.63;97463.08;1688402;85;20979;-80
2022/01/15 03:24:56;;;;;;;24.55;10.20;;;;;;;1.14;88.36;97464.81;1670834;85;20969;-80
2022/01/15 03:27:24;;;;;;;27.60;15.80;;;;;;;1.12;88.14;97464.88;1688507;85;21043;-80
2022/01/15 03:29:51;;;;;;;16.67;10.45;;;;;;;1.13;88.06;97459.30;1688295;85;21057;-80
2022/01/15 03:32:19;;;;;;;19.12;9.35;;;;;;;1.06;87.70;97462.72;1687914;85;21026;-80
2022/01/15 03:34:44;;;;;;;23.15;9.83;;;;;;;1.00;87.66;97463.58;1688120;85;21023;-80
2022/01/15 03:37:10;;;;;;;16.12;9.35;;;;;;;0.98;88.00;97458.56;1688496;85;21372;-80
2022/01/15 03:39:38;;;;;;;19.52;10.30;;;;;;;1.01;88.03;97456.27;1688342;85;20961;-80
2022/01/15 03:42:10;;;;;;;23.38;11.22;;;;;;;1.02;87.87;97463.84;1688522;85;21324;-80
2022/01/15 03:44:32;;;;;;;16.30;9.50;;;;;;;1.01;87.68;97459.64;1687668;85;21029;-80
2022/01/15 03:46:58;;;;;;;15.25;9.18;;;;;;;1.01;87.60;97466.04;1688114;85;21033;-80
2022/01/15 03:49:23;;;;;;;15.30;9.33;;;;;;;1.00;87.39;97461.84;1688217;85;20942;-80
2022/01/15 03:51:49;;;;;;;16.17;10.13;;;;;;;1.01;87.51;97470.34;1680839;85;21026;-80
2022/01/15 03:54:15;;;;;;;18.37;9.90;;;;;;;1.00;87.50;97469.98;1680954;85;20985;-80
2022/01/15 03:56:40;;;;;;;17.42;10.43;;;;;;;0.99;87.52;97471.72;1680949;85;20957;-80
2022/01/15 03:59:06;;;;;;;22.15;8.80;;;;;;;0.94;86.99;97463.94;1688227;82;21396;-81
2022/01/15 04:01:32;;;;;;;16.10;10.35;;;;;;;0.94;86.97;97465.22;1690406;84;20978;-80
2022/01/15 04:03:58;;;;;;;17.20;9.85;;;;;;;0.89;86.85;97468.08;1709231;84;21007;-80
2022/01/15 04:06:23;;;;;;;16.50;9.83;;;;;;;0.87;87.00;97460.50;1689273;84;20963;-80
2022/01/15 04:08:49;;;;;;;17.37;10.40;;;;;;;0.86;87.17;97461.41;1709360;83;20978;-80
2022/01/15 04:11:15;;;;;;;22.13;11.53;;;;;;;0.84;87.06;97464.53;1709261;83;21390;-80
2022/01/15 04:13:41;;;;;;;20.05;12.28;;;;;;;0.85;86.92;97464.07;1709227;84;21030;-80
2022/01/15 04:16:07;;;;;;;18.05;9.30;;;;;;;0.83;86.72;97468.00;1709291;84;21009;-80
2022/01/15 04:18:39;;;;;;;15.00;9.53;;;;;;;0.79;86.29;97471.64;1709273;83;21034;-80
2022/01/15 04:21:01;;;;;;;14.93;8.95;;;;;;;0.76;86.40;97466.72;1708359;84;20972;-80
2022/01/15 04:23:27;;;;;;;19.35;10.55;;;;;;;0.72;86.55;97467.84;1709321;83;21333;-80
2022/01/15 04:25:52;;;;;;;21.55;10.40;;;;;;;0.73;86.77;97467.38;1709396;84;20939;-80
2022/01/15 04:28:18;;;;;;;17.77;9.65;;;;;;;0.72;86.72;97469.58;1709547;84;20974;-80
2022/01/15 04:30:47;;;;;;;22.02;10.03;;;;;;;0.73;86.55;97470.75;1709176;84;20998;-80
2022/01/15 04:33:12;;;;;;;21.23;8.35;;;;;;;0.71;86.59;97472.59;1708810;84;20959;-81
2022/01/15 04:35:37;;;;;;;20.75;10.82;;;;;;;0.70;86.41;97479.09;1709529;84;21448;-80
2022/01/15 04:38:08;;;;;;;20.68;9.20;;;;;;;0.69;86.47;97477.44;1709482;84;21003;-80
2022/01/15 04:40:31;;;;;;;17.50;8.85;;;;;;;0.68;86.57;97478.36;1709269;82;21361;-80
2022/01/15 04:42:56;;;;;;;17.10;8.30;;;;;;;0.68;86.56;97488.13;1689168;84;20970;-80
2022/01/15 04:45:22;;;;;;;13.70;8.43;;;;;;;0.70;86.52;97482.46;1709662;83;20947;-80
2022/01/15 04:47:48;;;;;;;19.23;9.53;;;;;;;0.73;86.47;97487.39;1709619;83;21436;-80
2022/01/15 04:50:15;;;;;;;18.20;10.15;;;;;;;0.74;86.44;97481.35;1711638;83;20986;-80
2022/01/15 04:52:41;;;;;;;13.65;9.23;;;;;;;0.74;86.35;97489.48;1719343;83;20998;-81
2022/01/15 04:55:08;;;;;;;18.85;11.15;;;;;;;0.72;86.40;97483.19;1712227;83;21050;-80
2022/01/15 04:57:34;;;;;;;15.68;9.28;;;;;;;0.73;86.31;97486.56;1709754;84;21362;-81
2022/01/15 04:59:59;;;;;;;19.65;10.08;;;;;;;0.75;86.35;97486.01;1689375;84;20983;-80
2022/01/15 05:02:25;;;;;;;17.42;10.63;;;;;;;0.76;86.23;97488.47;1709710;84;20951;-80
2022/01/15 05:04:51;;;;;;;20.25;12.10;;;;;;;0.78;86.35;97493.03;1709722;83;21006;-80
2022/01/15 05:07:17;;;;;;;16.93;10.00;;;;;;;0.74;86.12;97492.05;1709726;84;21357;-81
2022/01/15 05:09:43;;;;;;;21.75;10.60;;;;;;;0.73;86.13;97492.96;1709857;84;20987;-80
2022/01/15 05:12:21;;;;;;;18.92;11.15;;;;;;;0.70;86.06;97502.92;1688667;84;20987;-80
2022/01/15 05:14:37;;;;;;;16.97;10.95;;;;;;;0.69;85.96;97507.68;1706065;84;21042;-80
2022/01/15 05:17:03;;;;;;;20.17;11.30;;;;;;;0.73;86.19;97505.75;1709673;84;21041;-80
2022/01/15 05:19:29;;;;;;;23.83;11.30;;;;;;;0.74;86.19;97507.39;1709712;84;20935;-80
2022/01/15 05:21:56;;;;;;;15.50;10.45;;;;;;;0.76;86.13;97510.67;1710016;84;20959;-80
2022/01/15 05:24:25;;;;;;;18.20;10.00;;;;;;;0.73;86.00;97512.15;1709948;84;20983;-80
2022/01/15 05:26:50;;;;;;;15.53;10.13;;;;;;;0.71;85.76;97508.86;1709398;83;21409;-80
2022/01/15 05:29:16;;;;;;;19.17;10.85;;;;;;;0.69;85.84;97510.70;1709848;83;20951;-80
2022/01/15 05:31:42;;;;;;;20.15;12.10;;;;;;;0.71;86.06;97507.13;1709571;84;21031;-80
2022/01/15 05:34:07;;;;;;;17.67;11.40;;;;;;;0.69;86.00;97506.41;1709481;84;21421;-80
2022/01/15 05:36:33;;;;;;;23.85;11.65;;;;;;;0.70;86.18;97504.20;1709642;83;20947;-80
2022/01/15 05:38:59;;;;;;;24.98;13.05;;;;;;;0.71;86.10;97505.84;1709939;83;20916;-80
2022/01/15 05:41:24;;;;;;;17.23;11.08;;;;;;;0.70;86.03;97501.64;1709822;84;21279;-80
2022/01/15 05:43:50;;;;;;;23.18;12.50;;;;;;;0.72;86.15;97499.81;1709773;84;20946;-80
2022/01/15 05:46:16;;;;;;;21.90;11.18;;;;;;;0.71;86.11;97507.58;1709458;83;20967;-80
2022/01/15 05:48:42;;;;;;;19.12;11.18;;;;;;;0.68;86.13;97507.31;1709531;84;21010;-80
2022/01/15 05:51:07;;;;;;;20.88;11.57;;;;;;;0.67;86.18;97514.63;1703275;84;21039;-80
2022/01/15 05:53:33;;;;;;;19.30;10.82;;;;;;;0.68;86.16;97512.89;1675167;84;21460;-80
2022/01/15 05:55:59;;;;;;;19.15;10.00;;;;;;;0.69;86.22;97517.09;1696749;83;21418;-80
2022/01/15 05:58:25;;;;;;;20.32;9.73;;;;;;;0.65;85.94;97513.05;1682119;83;21051;-80
2022/01/15 06:00:50;;;;;;;16.57;10.53;;;;;;;0.61;86.12;97518.81;1692278;84;21052;-80
2022/01/15 06:03:16;;;;;;;17.65;10.10;;;;;;;0.59;86.15;97517.63;1696688;84;22035;-80
2022/01/15 06:05:42;;;;;;;20.75;10.32;;;;;;;0.65;86.28;97519.45;1696731;83;21062;-80
2022/01/15 06:08:08;;;;;;;23.27;11.90;;;;;;;0.65;86.22;97513.91;1696700;84;21045;-80
2022/01/15 06:10:34;;;;;;;24.27;11.15;;;;;;;0.63;86.19;97510.59;1696791;84;21355;-80
2022/01/15 06:13:00;;;;;;;18.70;11.70;;;;;;;0.59;86.10;97516.81;1696817;84;20988;-80
2022/01/15 06:15:26;;;;;;;25.40;12.20;;;;;;;0.58;86.29;97515.17;1696719;84;21383;-81
2022/01/15 06:17:52;;;;;;;24.87;12.80;;;;;;;0.59;86.22;97517.63;1675449;84;21075;-80
2022/01/15 06:20:18;;;;;;;24.80;12.85;;;;;;;0.59;86.24;97516.35;1696693;84;20964;-80
2022/01/15 06:22:43;;;;;;;30.23;13.32;;;;;;;0.60;86.27;97517.99;1696702;84;20925;-81
2022/01/15 06:25:09;;;;;;;23.55;13.18;;;;;;;0.64;86.38;97520.36;1696998;83;21386;-80
2022/01/15 06:27:35;;;;;;;17.67;11.53;;;;;;;0.62;86.30;97517.91;1696790;84;20940;-80
2022/01/15 06:30:01;;;;;;;13.75;9.13;;;;;;;0.62;86.34;97506.84;1696817;84;21003;-80
2022/01/15 06:32:27;;;;;;;20.25;9.83;;;;;;;0.63;86.30;97514.89;1696786;84;21043;-80
2022/01/15 06:34:53;;;;;;;25.35;12.93;;;;;;;0.59;85.95;97516.81;1696893;83;21015;-81
2022/01/15 06:37:19;;;;;;;20.75;11.28;;;;;;;0.54;86.09;97517.09;1696794;84;21354;-80
2022/01/15 06:39:46;;;;;;;19.65;10.20;;;;;;;0.52;86.17;97516.37;1696515;84;21119;-80
2022/01/15 06:42:12;;;;;;;18.25;10.53;;;;;;;0.50;86.18;97517.38;1697020;84;21123;-80
2022/01/15 06:44:37;;;;;;;19.05;9.30;;;;;;;0.48;86.14;97517.45;1696838;83;21048;-80
2022/01/15 06:47:03;;;;;;;25.57;11.78;;;;;;;0.48;86.13;97519.18;1696988;83;20979;-80
2022/01/15 06:49:29;;;;;;;24.37;12.25;;;;;;;0.47;86.21;97515.80;1675122;84;21409;-80
2022/01/15 06:51:55;;;;;;;22.87;12.03;;;;;;;0.52;86.48;97518.93;1696546;83;21004;-80
2022/01/15 06:54:20;;;;;;;23.55;11.12;;;;;;;0.53;86.49;97525.69;1696700;84;20999;-80
2022/01/15 06:56:46;;;;;;;23.60;11.83;;;;;;;0.52;86.32;97527.88;1696784;83;21010;-80
2022/01/15 06:59:12;;;;;;;21.80;11.83;;;;;;;0.55;86.29;97528.15;1696982;83;21035;-81
2022/01/15 07:01:38;;;;;;;21.20;12.55;;;;;;;0.55;86.36;97530.25;1696702;84;21016;-80
2022/01/15 07:04:03;;;;;;;23.20;12.75;;;;;;;0.55;86.41;97527.69;1696649;84;21355;-80
2022/01/15 07:06:29;;;;;;;26.50;12.18;;;;;;;0.54;86.26;97538.84;1696643;84;20999;-80
2022/01/15 07:08:55;;;;;;;30.32;12.82;;;;;;;0.55;86.37;97539.20;1696767;84;20980;-80
2022/01/15 07:11:21;;;;;;;52.55;39.67;;;;;;;0.60;86.48;97542.75;1696804;83;20992;-80
2022/01/15 07:13:47;;;;;;;77.50;42.25;;;;;;;0.65;86.57;97545.88;1696891;83;21050;-80
2022/01/15 07:16:13;;;;;;;320.40;117.55;;;;;;;0.65;86.46;97557.39;1696809;84;21377;-80
2022/01/15 07:18:38;;;;;;;441.38;165.10;;;;;;;0.63;86.39;97553.25;1696811;83;21107;-80
2022/01/15 07:21:04;;;;;;;397.23;147.78;;;;;;;0.57;86.15;97563.41;1696794;83;20964;-80
2022/01/15 07:23:30;;;;;;;327.52;114.70;;;;;;;0.58;86.34;97570.98;1684960;83;21016;-80
2022/01/15 07:25:55;;;;;;;408.38;148.70;;;;;;;0.61;86.35;97569.97;1692478;84;21007;-80
2022/01/15 07:28:23;;;;;;;102.10;39.45;;;;;;;0.62;86.47;97569.52;1696855;84;21035;-80
2022/01/15 07:30:49;;;;;;;636.52;282.27;;;;;;;0.64;86.62;97562.56;1696697;83;21367;-80
2022/01/15 07:33:14;;;;;;;184.28;65.22;;;;;;;0.63;86.62;97560.92;1696759;84;21051;-81
2022/01/15 07:35:43;;;;;;;80.67;27.27;;;;;;;0.63;86.35;97559.19;1696834;83;21024;-80
2022/01/15 07:38:08;;;;;;;26.30;11.40;;;;;;;0.65;86.41;97562.93;1696810;84;21045;-80
2022/01/15 07:40:36;;;;;;;32.53;13.72;;;;;;;0.67;86.56;97561.13;1675052;85;21024;-80
2022/01/15 07:43:01;;;;;;;411.47;162.10;;;;;;;0.66;86.58;97552.64;1696808;83;21377;-80
2022/01/15 07:45:27;;;;;;;204.38;69.45;;;;;;;0.68;86.74;97563.59;1630554;84;21011;-80
2022/01/15 07:47:53;;;;;;;145.05;43.60;;;;;;;0.69;86.62;97569.53;1696283;83;21069;-80
2022/01/15 07:50:23;;;;;;;83.42;27.32;;;;;;;0.71;86.55;97571.08;1695717;83;21383;-80
2022/01/15 07:52:46;;;;;;;70.17;24.70;;;;;;;0.70;86.12;97569.90;1685750;83;21470;-80
2022/01/15 07:55:12;;;;;;;32.33;14.13;;;;;;;0.68;86.18;97575.56;1688700;85;21108;-80
2022/01/15 07:57:40;;;;;;;34.45;13.20;;;;;;;0.68;86.29;97570.45;1688419;85;21075;-80
2022/01/15 08:00:07;;;;;;;37.28;18.48;;;;;;;0.66;85.86;97577.39;1688900;85;21474;-80
2022/01/15 08:02:33;;;;;;;29.92;15.58;;;;;;;0.67;85.83;97570.91;1688832;85;21438;-81
2022/01/15 08:05:01;;;;;;;33.08;16.87;;;;;;;0.70;85.92;97569.90;1688375;85;21499;-80
2022/01/15 08:07:27;;;;;;;125.05;42.30;;;;;;;0.69;85.71;97572.09;1688705;85;20983;-80
2022/01/15 08:09:52;;;;;;;58.00;23.62;;;;;;;0.69;85.73;97570.35;1688885;85;20976;-80
2022/01/15 08:12:19;;;;;;;43.30;21.60;;;;;;;0.69;85.89;97570.35;1688749;85;21426;-80
2022/01/15 08:14:46;;;;;;;33.28;15.25;;;;;;;0.74;85.86;97569.61;1688913;85;20989;-80
2022/01/15 08:17:12;;;;;;;37.35;19.80;;;;;;;0.79;86.01;97565.48;1688673;85;20965;-80
2022/01/15 08:19:37;;;;;;;29.10;15.40;;;;;;;0.79;85.56;97566.77;1688120;85;21055;-80
2022/01/15 08:22:03;;;;;;;112.12;41.23;;;;;;;0.78;85.68;97567.69;1688921;85;21008;-80
2022/01/15 08:24:30;;;;;;;26.30;12.58;;;;;;;0.79;85.77;97570.15;1688363;85;21028;-80
2022/01/15 08:26:55;;;;;;;24.75;12.47;;;;;;;0.79;85.33;97567.59;1688756;85;21355;-80
2022/01/15 08:29:21;;;;;;;24.27;11.22;;;;;;;0.81;85.33;97567.49;1688690;85;21470;-81
2022/01/15 08:31:47;;;;;;;23.35;12.47;;;;;;;0.82;85.18;97577.66;1688439;85;21070;-80
2022/01/15 08:34:12;;;;;;;23.42;11.18;;;;;;;0.81;85.24;97576.45;1688789;85;21076;-80
2022/01/15 08:36:38;;;;;;;60.28;20.57;;;;;;;0.80;84.93;97573.07;1688609;85;21509;-80
2022/01/15 08:39:04;;;;;;;43.78;17.50;;;;;;;0.80;84.81;97578.19;1688857;85;21011;-81
2022/01/15 08:41:30;;;;;;;81.70;30.65;;;;;;;0.84;84.90;97577.57;1688787;85;20972;-80
2022/01/15 08:43:56;;;;;;;91.78;41.42;;;;;;;0.86;84.90;97585.97;1688821;85;21910;-80
2022/01/15 08:46:23;;;;;;;69.60;28.52;;;;;;;0.86;84.89;97585.52;1669380;85;20996;-80
2022/01/15 08:48:49;;;;;;;141.20;52.00;;;;;;;0.86;84.88;97580.39;1688429;85;21076;-80
2022/01/15 08:51:15;;;;;;;32.63;15.15;;;;;;;0.88;84.82;97588.80;1688266;84;21008;-80
2022/01/15 08:53:40;;;;;;;123.78;47.23;;;;;;;0.87;84.27;97588.44;1687604;83;21012;-80
2022/01/15 08:56:06;;;;;;;61.05;25.43;;;;;;;0.87;84.70;97586.34;1668515;85;21028;-80
2022/01/15 08:58:32;;;;;;;53.68;22.65;;;;;;;0.88;84.66;97589.26;1656736;87;20980;-80
2022/01/15 09:00:58;;;;;;;94.35;38.42;;;;;;;0.87;84.89;97595.30;1656877;87;21040;-81
2022/01/15 09:03:25;;;;;;;52.95;22.93;;;;;;;0.95;84.99;97596.09;1636299;87;20996;-80
2022/01/15 09:05:51;;;;;;;27.42;13.40;;;;;;;1.00;85.07;97597.48;1656836;86;21435;-80
2022/01/15 09:08:21;;;;;;;22.48;13.50;;;;;;;1.06;85.00;97593.27;1657065;86;21016;-80
2022/01/15 09:10:46;;;;;;;29.50;14.40;;;;;;;1.09;85.03;97590.51;1656453;86;21016;-80
2022/01/15 09:13:12;;;;;;;88.20;34.03;;;;;;;1.13;85.13;97593.70;1656652;87;20977;-80
2022/01/15 09:15:38;;;;;;;43.35;18.35;;;;;;;1.16;84.74;97589.70;1657042;87;21438;-80
2022/01/15 09:18:04;;;;;;;24.52;12.40;;;;;;;1.17;84.61;97590.88;1656748;87;21055;-80
2022/01/15 09:20:30;;;;;;;28.12;16.12;;;;;;;1.20;84.51;97593.24;1636225;87;21298;-80
2022/01/15 09:22:55;;;;;;;32.28;17.95;;;;;;;1.18;84.04;97592.98;1656809;87;21435;-80
2022/01/15 09:25:21;;;;;;;39.35;19.85;;;;;;;1.13;83.83;97586.84;1656625;87;21016;-80
2022/01/15 09:30:32;;;;;;;35.28;21.20;;;;;;;1.09;83.80;97583.29;1656953;86;22180;-80
2022/01/15 09:32:58;;;;;;;42.48;19.52;;;;;;;1.04;83.79;97583.58;1654736;87;20957;-80
2022/01/15 09:35:27;;;;;;;32.13;14.45;;;;;;;1.06;83.86;97590.70;1654677;86;21035;-80
2022/01/15 09:37:53;;;;;;;39.18;19.90;;;;;;;1.05;83.57;97592.90;1654829;86;21067;-80
2022/01/15 09:40:21;;;;;;;53.60;23.40;;;;;;;1.07;83.76;97598.74;1656309;86;21013;-80
2022/01/15 09:42:49;;;;;;;41.35;19.15;;;;;;;1.07;83.58;97596.19;1656879;86;21031;-80
2022/01/15 09:45:20;;;;;;;39.27;18.07;;;;;;;1.07;83.40;97581.28;1645406;87;21076;-80
2022/01/15 09:47:46;;;;;;;28.20;14.53;;;;;;;1.08;83.41;97595.27;1657262;86;20949;-80
2022/01/15 09:50:16;;;;;;;28.27;12.93;;;;;;;1.15;83.62;97590.61;1656860;87;21359;-80
2022/01/15 09:52:42;;;;;;;25.45;12.20;;;;;;;1.19;83.68;97588.22;1677986;83;21032;-81
2022/01/15 09:55:12;;;;;;;25.65;11.05;;;;;;;1.18;83.48;97592.52;1697643;84;21067;-80
2022/01/15 09:57:38;;;;;;;27.98;14.60;;;;;;;1.20;83.47;97593.70;1644806;86;21457;-80
2022/01/15 10:00:15;;;;;;;29.07;15.23;;;;;;;1.23;83.50;97590.13;1673621;85;21406;-80
2022/01/15 10:02:42;;;;;;;29.35;16.32;;;;;;;1.28;83.36;97598.34;1669699;85;21019;-80
2022/01/15 10:05:10;;;;;;;30.10;13.65;;;;;;;1.24;82.81;97590.49;1668929;85;20976;-80
2022/01/15 10:07:35;;;;;;;40.90;17.77;;;;;;;1.18;82.52;97591.70;1668873;86;21047;-80
2022/01/15 10:10:18;;;;;;;36.25;15.50;;;;;;;1.15;82.92;97600.39;1668786;85;21090;-80
2022/01/15 10:12:44;;;;;;;;;;;;;;;1.16;82.73;97596.92;1663536;86;21011;-80
2022/01/15 10:15:11;;;;;;;30.50;13.08;;;;;;;1.22;82.67;97593.61;1668927;85;20152;-80
2022/01/15 10:17:38;;;;;;;30.02;13.58;;;;;;;1.19;82.58;97590.78;1668938;85;21087;-80
2022/01/15 10:20:13;;;;;;;33.10;16.52;;;;;;;1.17;82.57;97588.31;1668721;85;21112;-80
2022/01/15 10:22:46;;;;;;;28.45;15.20;;;;;;;1.19;82.72;97587.77;1669141;85;21058;-81
2022/01/15 10:25:19;;;;;;;33.40;19.40;;;;;;;1.26;82.76;97588.66;1669234;85;21023;-81
2022/01/15 10:27:45;;;;;;;25.92;13.80;;;;;;;1.32;82.67;97592.14;1668604;86;21019;-80
2022/01/15 10:30:22;;;;;;;29.15;16.35;;;;;;;1.35;82.23;97588.92;1668918;85;21501;-80
2022/01/15 10:32:59;;;;;;;46.68;24.98;;;;;;;1.35;82.07;97591.48;1669225;85;20992;-80
2022/01/15 10:35:28;;;;;;;45.23;23.45;;;;;;;1.35;82.13;97593.22;1668707;86;21359;-81
2022/01/15 10:38:01;;;;;;;31.15;16.12;;;;;;;1.37;82.19;97592.66;1668394;86;20996;-80
2022/01/15 10:40:43;;;;;;;30.10;16.25;;;;;;;1.41;82.01;97592.83;1668520;86;21016;-80
2022/01/15 10:43:11;;;;;;;31.42;17.02;;;;;;;1.44;82.09;97590.07;1667286;85;21086;-80
2022/01/15 10:45:49;;;;;;;30.02;17.17;;;;;;;1.49;82.69;97590.17;1670280;85;21121;-80
2022/01/15 10:48:34;;;;;;;27.65;14.38;;;;;;;1.54;81.96;97586.48;1668779;85;21093;-81
2022/01/15 10:51:03;;;;;;;29.15;16.67;;;;;;;1.58;81.44;97584.91;1669072;85;21401;-80
2022/01/15 10:53:42;;;;;;;43.00;23.10;;;;;;;1.65;81.39;97583.63;1679337;83;21490;-80
2022/01/15 10:56:10;;;;;;;27.55;13.85;;;;;;;1.63;80.93;97581.62;1668720;86;21426;-80
2022/01/15 10:58:37;;;;;;;25.85;12.63;;;;;;;1.61;81.06;97581.33;1668754;86;21094;-80
2022/01/15 11:01:03;;;;;;;31.50;17.05;;;;;;;1.58;81.17;97582.34;1669040;86;20956;-80
2022/01/15 11:03:43;;;;;;;29.87;15.90;;;;;;;1.65;81.09;97586.19;1668742;86;21008;-80
2022/01/15 11:06:08;;;;;;;28.70;15.15;;;;;;;1.71;81.23;97583.68;1668810;86;21099;-80
2022/01/15 11:08:36;;;;;;;29.23;14.15;;;;;;;1.71;80.98;97587.06;1674746;86;21074;-80
2022/01/15 11:11:08;;;;;;;24.72;12.80;;;;;;;1.65;80.11;97580.23;1668867;86;21075;-80
2022/01/15 11:13:41;;;;;;;41.37;18.00;;;;;;;1.61;80.02;97584.70;1668853;86;21099;-81
2022/01/15 11:16:14;;;;;;;26.93;17.30;;;;;;;1.62;80.35;97575.28;1668784;86;21142;-80
2022/01/15 11:18:50;;;;;;;30.05;14.75;;;;;;;1.63;80.67;97575.22;1668739;86;21058;-80
2022/01/15 11:21:18;;;;;;;27.90;15.53;;;;;;;1.67;80.58;97579.22;1668938;86;21024;-81
2022/01/15 11:23:45;;;;;;;31.20;16.17;;;;;;;1.73;80.62;97580.56;1668840;86;21018;-80
2022/01/15 11:26:27;;;;;;;29.65;14.47;;;;;;;1.76;80.63;97579.89;1668665;86;21091;-80
2022/01/15 11:28:53;;;;;;;28.65;15.35;;;;;;;1.74;80.40;97584.77;1668826;86;21007;-80
2022/01/15 11:31:25;;;;;;;31.87;17.80;;;;;;;1.70;80.36;97579.02;1668909;86;20987;-81
2022/01/15 11:33:53;;;;;;;33.78;16.77;;;;;;;1.66;79.93;97573.73;1668697;85;21023;-80
2022/01/15 11:36:36;;;;;;;32.15;17.32;;;;;;;1.63;80.15;97574.39;1668739;86;21012;-80
2022/01/15 11:39:09;;;;;;;33.50;19.48;;;;;;;1.62;79.86;97578.66;1668835;86;21015;-80
2022/01/15 11:41:40;;;;;;;28.67;16.70;;;;;;;1.68;79.97;97583.42;1668636;86;21099;-80
2022/01/15 11:44:15;;;;;;;29.65;15.85;;;;;;;1.67;79.38;97578.40;1668097;86;21011;-81
2022/01/15 11:46:53;;;;;;;30.57;17.45;;;;;;;1.62;79.57;97585.07;1668756;86;20996;-80
2022/01/15 11:49:41;;;;;;;30.50;16.60;;;;;;;1.62;79.97;97585.07;1668520;86;21035;-80
2022/01/15 11:52:13;;;;;;;33.00;17.82;;;;;;;1.61;79.75;97577.02;1673011;83;21014;-80
2022/01/15 11:55:02;;;;;;;33.53;19.30;;;;;;;1.57;79.57;97580.70;1689821;84;21013;-80